Time;durP1;ratioP1;P1;durP2;ratioP2;P2;SDS_P1;SDS_P2;PMS_P1;PMS_P2;Temp;Humidity;BMP_temperature;BMP_pressure;BME280_temperature;BME280_humidity;BME280_pressure;Samples;Min_cycle;Max_cycle;Signal;HPM_P1;HPM_P2
2021/06/28 00:00:35;;;;;;;3.37;2.97;;;17.80;99.90;;;;;;6235630;28;20184;-72
2021/06/28 00:03:38;;;;;;;4.27;3.00;;;17.80;99.90;;;;;;6269728;28;20211;-72
2021/06/28 00:06:41;;;;;;;3.00;2.80;;;17.80;99.90;;;;;;6270056;28;20203;-72
2021/06/28 00:09:43;;;;;;;3.20;2.90;;;17.70;99.90;;;;;;6251847;28;20669;-72
2021/06/28 00:12:49;;;;;;;4.60;3.03;;;17.70;99.90;;;;;;6251894;28;20190;-72
2021/06/28 00:15:52;;;;;;;3.83;2.80;;;17.70;99.90;;;;;;6269269;28;20656;-72
2021/06/28 00:18:55;;;;;;;3.50;3.20;;;17.60;99.90;;;;;;6243791;28;20196;-72
2021/06/28 00:21:58;;;;;;;4.00;3.07;;;17.60;99.90;;;;;;6244761;28;20279;-72
2021/06/28 00:25:00;;;;;;;3.17;2.87;;;17.60;99.90;;;;;;6245348;28;20219;-72
2021/06/28 00:28:04;;;;;;;5.07;2.60;;;17.60;99.90;;;;;;6251628;28;20199;-72
2021/06/28 00:31:08;;;;;;;4.27;2.87;;;17.50;99.90;;;;;;6235094;28;20195;-72
2021/06/28 00:34:12;;;;;;;2.60;2.40;;;17.50;99.90;;;;;;6269709;28;20255;-72
2021/06/28 00:37:14;;;;;;;3.10;2.90;;;17.50;99.90;;;;;;6269114;28;20538;-72
2021/06/28 00:40:18;;;;;;;2.80;2.60;;;17.50;99.90;;;;;;6269760;28;20197;-72
2021/06/28 00:43:20;;;;;;;5.57;2.73;;;17.40;99.90;;;;;;6270256;28;20203;-72
2021/06/28 00:46:23;;;;;;;4.00;3.13;;;17.50;99.90;;;;;;6251603;28;20195;-72
2021/06/28 00:49:25;;;;;;;3.00;2.80;;;17.40;99.90;;;;;;6252094;28;20183;-72
2021/06/28 00:52:27;;;;;;;5.20;3.20;;;17.40;99.90;;;;;;6269200;28;20183;-72
2021/06/28 00:55:31;;;;;;;4.43;3.10;;;17.40;99.90;;;;;;6251589;28;20202;-72
2021/06/28 00:58:34;;;;;;;5.80;3.20;;;17.30;99.90;;;;;;6252046;28;20215;-72
2021/06/28 01:01:37;;;;;;;6.50;2.73;;;17.30;99.90;;;;;;6273489;28;20187;-72
2021/06/28 01:04:39;;;;;;;3.10;2.80;;;17.20;99.90;;;;;;6273281;28;20227;-72
2021/06/28 01:07:43;;;;;;;4.17;2.67;;;17.20;99.90;;;;;;6272121;28;20229;-72
2021/06/28 01:10:45;;;;;;;3.73;3.30;;;17.20;99.90;;;;;;6273580;28;20187;-72
2021/06/28 01:13:48;;;;;;;5.20;2.93;;;17.10;99.90;;;;;;6273106;28;20662;-72
2021/06/28 01:16:51;;;;;;;4.40;3.30;;;17.10;99.90;;;;;;6255594;28;20226;-72
2021/06/28 01:19:59;;;;;;;3.07;2.87;;;17.10;99.90;;;;;;6273415;28;20194;-72
2021/06/28 01:23:24;;;;;;;3.10;2.90;;;17.20;99.90;;;;;;6238579;28;20231;-72
2021/06/28 01:26:27;;;;;;;3.33;3.03;;;17.10;99.90;;;;;;6255588;28;20727;-72
2021/06/28 01:29:29;;;;;;;3.23;3.03;;;17.20;99.90;;;;;;6254894;28;20280;-72
2021/06/28 01:32:31;;;;;;;3.53;3.23;;;17.10;99.90;;;;;;6255549;28;20183;-72
2021/06/28 01:35:34;;;;;;;3.70;2.97;;;17.10;99.90;;;;;;6272966;28;20269;-72
2021/06/28 01:38:37;;;;;;;3.07;2.80;;;17.10;99.90;;;;;;6246479;28;20655;-72
2021/06/28 01:41:39;;;;;;;3.30;3.03;;;17.10;99.90;;;;;;6248440;28;20192;-72
2021/06/28 01:44:41;;;;;;;3.97;3.50;;;17.10;99.90;;;;;;6247461;28;20282;-72
2021/06/28 01:47:44;;;;;;;3.53;3.23;;;17.10;99.90;;;;;;6248177;28;20184;-72
2021/06/28 01:50:47;;;;;;;5.83;3.50;;;17.10;99.90;;;;;;6247760;28;20197;-72
2021/06/28 01:53:49;;;;;;;3.30;3.00;;;17.00;99.90;;;;;;6246743;28;20188;-72
2021/06/28 01:56:52;;;;;;;3.47;3.17;;;16.90;99.90;;;;;;6246886;28;20199;-72
2021/06/28 01:59:54;;;;;;;3.67;3.10;;;16.90;99.90;;;;;;6271994;28;20218;-72
2021/06/28 02:02:59;;;;;;;4.13;3.33;;;16.90;99.90;;;;;;6238066;28;20674;-72
2021/06/28 02:06:01;;;;;;;3.60;3.30;;;16.90;99.90;;;;;;6271707;28;20231;-72
2021/06/28 02:09:04;;;;;;;5.33;3.90;;;16.90;99.90;;;;;;6272165;28;20261;-72
2021/06/28 02:12:06;;;;;;;3.90;3.60;;;16.80;99.90;;;;;;6253311;28;20333;-72
2021/06/28 02:15:17;;;;;;;3.90;3.50;;;16.80;99.90;;;;;;6254001;28;20188;-72
2021/06/28 02:18:23;;;;;;;3.90;3.40;;;16.70;99.90;;;;;;6246187;28;20219;-72
2021/06/28 02:21:26;;;;;;;4.97;3.60;;;16.70;99.90;;;;;;6246829;28;20180;-72
2021/06/28 02:24:28;;;;;;;4.93;3.63;;;16.60;99.90;;;;;;6247103;28;20215;-72
2021/06/28 02:27:30;;;;;;;6.03;4.00;;;16.50;99.90;;;;;;6252752;28;20195;-72
2021/06/28 02:30:32;;;;;;;4.60;4.20;;;16.50;99.90;;;;;;6253715;28;20271;-72
2021/06/28 02:33:36;;;;;;;4.13;3.77;;;16.50;99.90;;;;;;6253906;28;20195;-72
2021/06/28 02:36:39;;;;;;;4.13;3.73;;;16.40;99.90;;;;;;6253154;28;20666;-72
2021/06/28 02:39:41;;;;;;;4.77;4.27;;;16.40;99.90;;;;;;6253825;28;20184;-72
2021/06/28 02:42:43;;;;;;;4.30;3.83;;;16.40;99.90;;;;;;6253008;28;20229;-72
2021/06/28 02:45:46;;;;;;;4.03;3.63;;;16.40;99.90;;;;;;6253337;28;20724;-72
2021/06/28 02:48:49;;;;;;;3.80;3.50;;;16.40;99.90;;;;;;6237212;28;20199;-72
2021/06/28 02:51:51;;;;;;;4.07;3.77;;;16.40;99.90;;;;;;6236578;28;20282;-72
2021/06/28 02:54:53;;;;;;;4.47;3.87;;;16.40;99.90;;;;;;6271165;28;20237;-72
2021/06/28 02:57:56;;;;;;;4.40;3.40;;;16.40;99.90;;;;;;6270751;28;20195;-72
2021/06/28 03:00:59;;;;;;;4.20;3.90;;;16.30;99.90;;;;;;6271763;28;20195;-72
2021/06/28 03:04:02;;;;;;;4.50;3.53;;;16.40;99.90;;;;;;6270919;28;20288;-72
2021/06/28 03:07:04;;;;;;;4.20;3.80;;;16.40;99.90;;;;;;6270381;28;20642;-72
2021/06/28 03:10:10;;;;;;;4.03;3.70;;;16.40;99.90;;;;;;6253462;28;20188;-72
2021/06/28 03:13:12;;;;;;;3.70;3.40;;;16.40;99.90;;;;;;6270445;28;20558;-72
2021/06/28 03:16:15;;;;;;;4.10;3.70;;;16.30;99.90;;;;;;6253104;28;20720;-72
2021/06/28 03:19:17;;;;;;;4.00;3.70;;;16.40;99.90;;;;;;6270692;28;20322;-72
2021/06/28 03:22:19;;;;;;;4.17;3.87;;;16.30;99.90;;;;;;6251881;28;20191;-72
2021/06/28 03:25:21;;;;;;;4.93;3.63;;;16.30;99.90;;;;;;6270394;28;20211;-72
2021/06/28 03:28:24;;;;;;;4.23;3.83;;;16.30;99.90;;;;;;6269872;28;20192;-72
2021/06/28 03:31:29;;;;;;;5.30;3.90;;;16.30;99.90;;;;;;6252374;28;20192;-72
2021/06/28 03:34:31;;;;;;;4.60;4.20;;;16.30;99.90;;;;;;6251725;28;20187;-72
2021/06/28 03:37:34;;;;;;;4.33;4.03;;;16.40;99.90;;;;;;6252032;28;20205;-72
2021/06/28 03:40:40;;;;;;;4.27;3.97;;;16.30;99.90;;;;;;6269999;28;20180;-72
2021/06/28 03:43:43;;;;;;;4.63;3.97;;;16.30;99.90;;;;;;6269588;28;20194;-72
2021/06/28 03:46:45;;;;;;;4.50;4.10;;;16.20;99.90;;;;;;6252098;28;20202;-72
2021/06/28 03:49:47;;;;;;;4.90;4.50;;;16.30;99.90;;;;;;6269266;28;20214;-72
2021/06/28 03:52:50;;;;;;;4.33;3.90;;;16.20;99.90;;;;;;6269847;28;20686;-72
2021/06/28 03:55:52;;;;;;;6.23;4.23;;;16.20;99.90;;;;;;6252029;28;20214;-72
2021/06/28 03:58:55;;;;;;;5.03;4.53;;;16.20;99.90;;;;;;6269343;28;20657;-72
2021/06/28 04:01:57;;;;;;;5.63;4.33;;;16.20;99.90;;;;;;6269756;28;20562;-72
2021/06/28 04:04:59;;;;;;;6.30;4.67;;;16.20;99.90;;;;;;6269048;28;20226;-72
2021/06/28 04:08:01;;;;;;;5.10;4.70;;;16.20;99.90;;;;;;6251799;28;20190;-72
2021/06/28 04:11:05;;;;;;;5.40;4.90;;;16.20;99.90;;;;;;6269666;28;20321;-72
2021/06/28 04:14:07;;;;;;;4.90;4.50;;;16.30;99.90;;;;;;6269477;28;20191;-72
2021/06/28 04:17:10;;;;;;;4.87;4.47;;;16.40;99.90;;;;;;6235508;28;20781;-72
2021/06/28 04:20:13;;;;;;;5.40;4.73;;;16.40;99.90;;;;;;6269113;28;20183;-72
2021/06/28 04:23:16;;;;;;;4.90;4.50;;;16.40;99.90;;;;;;6269489;28;20233;-72
2021/06/28 04:26:19;;;;;;;5.30;4.80;;;16.60;99.90;;;;;;6234969;28;20647;-72
2021/06/28 04:29:21;;;;;;;5.80;4.77;;;16.60;99.90;;;;;;6269392;28;20228;-72
2021/06/28 04:32:23;;;;;;;5.20;4.80;;;16.60;99.90;;;;;;6269256;28;20187;-72
2021/06/28 04:35:27;;;;;;;4.83;4.37;;;16.70;99.90;;;;;;6253778;28;20203;-72
2021/06/28 04:38:30;;;;;;;5.20;4.70;;;16.70;99.90;;;;;;6256426;28;20191;-72
2021/06/28 04:41:32;;;;;;;6.17;5.57;;;16.80;99.90;;;;;;6273709;28;20264;-72
2021/06/28 04:44:34;;;;;;;5.20;4.80;;;16.80;99.90;;;;;;6239598;28;20312;-72
2021/06/28 04:47:37;;;;;;;6.20;5.10;;;16.80;99.90;;;;;;6255998;28;20680;-72
2021/06/28 04:50:40;;;;;;;5.47;4.97;;;16.80;99.90;;;;;;6255531;28;20282;-72
2021/06/28 04:53:42;;;;;;;5.37;4.97;;;16.90;99.90;;;;;;6273838;28;20211;-72
2021/06/28 04:56:44;;;;;;;4.87;4.40;;;17.00;99.90;;;;;;6255708;28;20273;-72
2021/06/28 04:59:46;;;;;;;5.67;5.17;;;17.00;99.90;;;;;;6273499;28;20356;-72
2021/06/28 05:02:49;;;;;;;5.20;4.67;;;17.10;99.90;;;;;;6273477;28;20289;-72
2021/06/28 05:05:51;;;;;;;5.30;4.90;;;17.20;99.90;;;;;;6272541;28;20717;-72
2021/06/28 05:08:53;;;;;;;5.50;4.70;;;17.20;99.90;;;;;;6273530;28;20670;-72
2021/06/28 05:11:55;;;;;;;5.00;4.53;;;17.30;99.90;;;;;;6255050;28;20200;-72
2021/06/28 05:14:57;;;;;;;4.87;4.50;;;17.30;99.90;;;;;;6255509;28;20205;-72
2021/06/28 05:18:00;;;;;;;5.93;4.87;;;17.40;99.90;;;;;;6255008;28;20195;-72
2021/06/28 05:21:02;;;;;;;5.17;4.77;;;17.40;99.90;;;;;;6273253;28;20187;-72
2021/06/28 05:24:05;;;;;;;5.37;4.63;;;17.60;99.90;;;;;;6238732;28;20742;-72
2021/06/28 05:27:07;;;;;;;5.50;5.00;;;17.60;99.90;;;;;;6254471;28;20627;-72
2021/06/28 05:30:14;;;;;;;5.53;5.03;;;17.70;99.90;;;;;;6272921;28;20214;-72
2021/06/28 05:33:16;;;;;;;5.80;5.30;;;17.70;99.90;;;;;;6254852;28;20241;-72
2021/06/28 05:36:19;;;;;;;8.13;5.03;;;17.80;99.90;;;;;;6272649;28;20191;-72
2021/06/28 05:39:21;;;;;;;6.30;4.70;;;17.80;99.90;;;;;;6230363;28;20196;-72
2021/06/28 05:42:24;;;;;;;5.43;4.93;;;17.80;99.90;;;;;;6246559;28;20532;-72
2021/06/28 05:45:26;;;;;;;5.00;4.67;;;17.90;99.90;;;;;;6247516;28;20594;-72
2021/06/28 05:48:28;;;;;;;6.03;5.40;;;18.10;99.90;;;;;;6247376;28;20246;-72
2021/06/28 05:51:30;;;;;;;5.87;5.13;;;18.20;99.90;;;;;;6246610;28;20196;-72
2021/06/28 05:54:33;;;;;;;5.33;4.83;;;18.30;99.90;;;;;;6246333;28;20288;-72
2021/06/28 05:57:35;;;;;;;6.23;5.30;;;18.50;99.90;;;;;;6253459;28;20195;-72
2021/06/28 06:00:37;;;;;;;6.13;5.30;;;18.50;99.90;;;;;;6273121;28;20190;-73
2021/06/28 06:03:39;;;;;;;9.70;5.93;;;18.60;99.90;;;;;;6271672;28;20207;-72
2021/06/28 06:06:42;;;;;;;5.43;5.03;;;18.70;99.90;;;;;;6254676;28;20674;-72
2021/06/28 06:09:45;;;;;;;5.57;4.60;;;18.90;99.90;;;;;;6254846;28;20734;-72
2021/06/28 06:12:48;;;;;;;5.37;4.87;;;19.10;99.90;;;;;;6259479;28;20223;-72
2021/06/28 06:15:52;;;;;;;5.73;5.23;;;19.30;99.90;;;;;;6277927;28;20689;-72
2021/06/28 06:18:54;;;;;;;6.33;4.80;;;19.60;99.90;;;;;;6274930;28;20666;-72
2021/06/28 06:21:57;;;;;;;4.97;4.57;;;19.90;99.90;;;;;;6271888;28;20183;-72
2021/06/28 06:24:59;;;;;;;4.47;4.03;;;20.00;99.90;;;;;;6253240;28;20624;-72
2021/06/28 06:28:02;;;;;;;5.00;4.60;;;20.20;99.90;;;;;;6271409;28;20590;-72
2021/06/28 06:31:04;;;;;;;5.30;4.63;;;20.40;99.90;;;;;;6237245;28;21011;-72
2021/06/28 06:34:06;;;;;;;5.67;4.80;;;20.60;99.90;;;;;;6236875;28;20229;-72
2021/06/28 06:37:09;;;;;;;5.77;4.73;;;20.70;99.90;;;;;;6271703;28;20183;-72
2021/06/28 06:40:12;;;;;;;4.90;4.50;;;20.90;99.90;;;;;;6236687;28;20569;-72
2021/06/28 06:43:16;;;;;;;6.13;4.53;;;21.10;99.90;;;;;;6253589;28;20324;-72
2021/06/28 06:46:18;;;;;;;4.63;4.23;;;21.30;99.90;;;;;;6271132;28;20203;-72
2021/06/28 06:49:20;;;;;;;4.73;4.33;;;21.60;99.90;;;;;;6253096;28;20206;-72
2021/06/28 06:52:23;;;;;;;4.00;3.70;;;21.90;99.90;;;;;;6271157;28;20198;-72
2021/06/28 06:55:26;;;;;;;4.47;4.17;;;22.20;99.90;;;;;;6252509;28;20671;-72
2021/06/28 06:58:28;;;;;;;5.23;4.07;;;22.60;99.90;;;;;;6270223;28;20575;-72
2021/06/28 07:01:34;;;;;;;4.23;3.93;;;22.80;99.90;;;;;;6244568;28;20200;-72
2021/06/28 07:04:36;;;;;;;5.17;4.40;;;23.00;99.90;;;;;;6244413;28;20232;-72
2021/06/28 07:07:40;;;;;;;4.33;4.03;;;23.20;99.90;;;;;;6244938;28;20319;-72
2021/06/28 07:10:46;;;;;;;4.23;3.83;;;23.30;99.90;;;;;;6245492;28;20219;-72
2021/06/28 07:13:50;;;;;;;4.40;4.00;;;23.40;99.90;;;;;;6244654;28;20191;-72
2021/06/28 07:16:52;;;;;;;5.23;4.70;;;23.50;99.90;;;;;;6227708;28;20204;-72
2021/06/28 07:19:55;;;;;;;4.30;3.90;;;23.60;99.90;;;;;;6245794;28;20188;-72
2021/06/28 07:22:57;;;;;;;4.77;4.20;;;23.80;99.90;;;;;;6245723;28;20191;-72
2021/06/28 07:25:59;;;;;;;3.97;3.60;;;23.90;99.90;;;;;;6243760;28;20582;-72
2021/06/28 07:29:02;;;;;;;4.33;3.93;;;24.00;99.90;;;;;;6245483;28;20202;-72
2021/06/28 07:32:06;;;;;;;3.93;3.63;;;24.20;99.90;;;;;;6243675;28;20287;-72
2021/06/28 07:35:10;;;;;;;4.27;3.93;;;24.60;99.90;;;;;;6244233;28;20192;-72
2021/06/28 07:38:12;;;;;;;4.10;3.70;;;25.00;99.90;;;;;;6245189;28;20488;-72
2021/06/28 07:41:15;;;;;;;3.90;3.53;;;25.40;99.90;;;;;;6244822;28;20555;-72
2021/06/28 07:44:17;;;;;;;4.50;3.50;;;25.70;99.90;;;;;;6245361;28;20195;-72
2021/06/28 07:47:19;;;;;;;4.25;3.80;;;26.10;99.50;;;;;;6244615;28;20235;-72
2021/06/28 07:50:22;;;;;;;3.85;3.55;;;26.50;98.60;;;;;;6245170;28;20190;-72
2021/06/28 07:53:24;;;;;;;4.22;3.92;;;26.80;97.20;;;;;;6243851;28;20314;-72
2021/06/28 07:56:26;;;;;;;3.80;3.50;;;27.10;95.90;;;;;;6227183;28;20663;-72
2021/06/28 07:59:29;;;;;;;4.20;3.80;;;27.50;95.40;;;;;;6244982;28;20334;-72
2021/06/28 08:02:31;;;;;;;4.00;3.70;;;27.70;94.50;;;;;;6244698;28;20199;-72
2021/06/28 08:05:35;;;;;;;4.00;3.70;;;27.90;93.60;;;;;;6274812;28;20267;-72
2021/06/28 08:08:37;;;;;;;4.05;3.53;;;28.20;93.00;;;;;;6276120;28;20202;-73
2021/06/28 08:11:39;;;;;;;3.80;3.50;;;28.30;92.50;;;;;;6298322;28;20289;-73
2021/06/28 08:14:42;;;;;;;3.72;3.42;;;28.60;91.90;;;;;;6283176;28;20261;-73
2021/06/28 08:17:44;;;;;;;4.40;3.85;;;28.80;91.10;;;;;;6290036;28;20195;-73
2021/06/28 08:20:46;;;;;;;4.75;3.83;;;29.00;90.40;;;;;;6274592;28;20647;-73
2021/06/28 08:23:48;;;;;;;3.95;3.28;;;29.10;89.70;;;;;;6274087;28;20186;-73
2021/06/28 08:26:51;;;;;;;3.83;3.53;;;29.30;89.20;;;;;;6256669;28;20238;-73
2021/06/28 08:29:54;;;;;;;4.07;3.55;;;29.60;88.90;;;;;;6249841;28;20188;-73
2021/06/28 08:32:56;;;;;;;4.57;4.22;;;29.80;86.50;;;;;;6231815;28;20211;-73
2021/06/28 08:36:00;;;;;;;4.10;3.63;;;30.00;80.60;;;;;;6248256;28;20286;-73
2021/06/28 08:39:04;;;;;;;3.38;2.92;;;30.10;79.60;;;;;;6249212;28;20342;-73
2021/06/28 08:42:07;;;;;;;4.68;3.95;;;30.40;80.00;;;;;;6231936;28;20204;-73
2021/06/28 08:45:10;;;;;;;6.50;4.22;;;30.60;77.60;;;;;;6249032;28;20191;-73
2021/06/28 08:48:12;;;;;;;4.07;3.40;;;30.50;73.40;;;;;;6249280;28;20196;-73
2021/06/28 08:51:15;;;;;;;3.80;3.50;;;30.70;76.50;;;;;;6249348;28;20267;-73
2021/06/28 08:54:34;;;;;;;4.25;3.83;;;31.00;77.10;;;;;;6230775;28;20188;-73
2021/06/28 08:57:37;;;;;;;3.35;3.05;;;31.30;71.20;;;;;;6255578;28;20199;-73
2021/06/28 09:00:39;;;;;;;4.93;4.43;;;31.50;69.60;;;;;;6247378;28;20192;-73
2021/06/28 09:03:43;;;;;;;6.45;3.42;;;30.90;64.00;;;;;;6248803;28;20204;-73
2021/06/28 09:06:45;;;;;;;3.60;3.33;;;30.60;66.90;;;;;;6247612;28;20215;-73
2021/06/28 09:09:48;;;;;;;4.90;3.97;;;30.80;69.50;;;;;;6246988;28;20282;-73
2021/06/28 09:12:50;;;;;;;3.75;3.45;;;31.10;64.30;;;;;;6248171;28;20531;-73
2021/06/28 09:15:53;;;;;;;4.32;3.35;;;31.30;66.00;;;;;;6248243;28;20203;-73
2021/06/28 09:19:05;;;;;;;5.05;4.50;;;31.70;67.00;;;;;;6231118;28;20211;-73
2021/06/28 09:22:08;;;;;;;3.60;3.30;;;32.00;63.30;;;;;;6246736;28;20189;-73
2021/06/28 09:25:51;;;;;;;5.43;4.63;;;32.10;67.30;;;;;;6248227;28;20707;-73
2021/06/28 09:28:56;;;;;;;4.95;4.45;;;32.50;60.70;;;;;;6180406;28;20556;-73
2021/06/28 09:32:06;;;;;;;4.32;4.03;;;32.60;59.80;;;;;;6196312;28;20578;-73
2021/06/28 09:35:09;;;;;;;5.72;4.13;;;32.40;59.90;;;;;;6196540;28;20193;-73
2021/06/28 09:38:31;;;;;;;4.82;4.13;;;32.20;60.50;;;;;;6195995;28;20205;-73
2021/06/28 09:41:34;;;;;;;4.75;3.53;;;32.10;59.90;;;;;;6196640;28;20186;-73
2021/06/28 09:44:54;;;;;;;4.15;3.85;;;32.00;59.10;;;;;;6196021;28;20221;-73
2021/06/28 09:47:57;;;;;;;5.03;3.97;;;32.10;60.10;;;;;;6180407;28;20206;-72
2021/06/28 09:51:29;;;;;;;4.00;3.70;;;32.50;58.80;;;;;;6196382;28;20693;-72
2021/06/28 09:54:34;;;;;;;3.95;3.55;;;32.30;58.10;;;;;;6179413;28;20325;-72
2021/06/28 09:57:36;;;;;;;4.60;3.90;;;32.60;59.30;;;;;;6195940;28;20203;-72
2021/06/28 10:00:48;;;;;;;7.22;4.15;;;33.30;59.20;;;;;;6266596;28;20199;-72
2021/06/28 10:03:54;;;;;;;5.93;4.00;;;32.70;56.50;;;;;;6254696;28;20574;-72
2021/06/28 10:07:30;;;;;;;3.95;3.47;;;32.60;57.70;;;;;;6253619;28;20215;-72
2021/06/28 10:10:32;;;;;;;3.95;3.65;;;32.60;58.30;;;;;;6272231;28;20180;-72
2021/06/28 10:13:35;;;;;;;4.88;4.00;;;33.00;60.50;;;;;;6254525;28;20266;-72
2021/06/28 10:16:40;;;;;;;5.45;4.00;;;33.30;54.80;;;;;;6253518;28;20708;-72
2021/06/28 10:19:44;;;;;;;3.85;3.55;;;32.90;54.30;;;;;;6245732;28;20671;-72
2021/06/28 10:22:48;;;;;;;3.53;3.20;;;32.70;57.00;;;;;;6245745;28;20203;-72
2021/06/28 10:25:50;;;;;;;4.22;3.15;;;32.80;55.50;;;;;;6246858;28;20349;-72
2021/06/28 10:28:54;;;;;;;3.63;3.33;;;32.70;54.60;;;;;;6253407;28;20203;-72
2021/06/28 10:32:01;;;;;;;3.60;3.33;;;32.90;53.50;;;;;;6270681;28;20187;-72
2021/06/28 10:35:06;;;;;;;3.08;2.83;;;33.30;54.50;;;;;;6237208;28;20200;-72
2021/06/28 10:38:11;;;;;;;3.45;3.17;;;34.10;55.20;;;;;;6271102;28;20207;-72
2021/06/28 10:41:33;;;;;;;4.75;3.72;;;34.50;53.00;;;;;;6253527;28;20286;-71
2021/06/28 10:44:50;;;;;;;4.45;3.33;;;34.30;51.80;;;;;;6270984;28;20172;-71
2021/06/28 10:48:13;;;;;;;2.85;2.65;;;34.20;52.30;;;;;;6271142;28;20233;-71
2021/06/28 10:51:19;;;;;;;3.97;3.10;;;34.70;54.40;;;;;;6270662;28;20680;-71
2021/06/28 10:54:33;;;;;;;3.53;3.22;;;35.00;54.20;;;;;;6253224;28;20191;-71
2021/06/28 10:57:39;;;;;;;3.88;3.58;;;35.20;55.30;;;;;;6253124;28;20561;-71
2021/06/28 11:00:52;;;;;;;3.33;2.83;;;35.40;50.90;;;;;;6270409;28;20277;-71
2021/06/28 11:04:07;;;;;;;4.00;3.17;;;35.50;51.10;;;;;;6270343;28;20207;-71
2021/06/28 11:07:11;;;;;;;3.03;2.80;;;36.00;53.90;;;;;;6270111;28;20227;-71
2021/06/28 11:10:35;;;;;;;3.50;3.20;;;36.50;53.80;;;;;;6253028;28;20669;-71
2021/06/28 11:13:52;;;;;;;3.92;3.47;;;37.00;51.50;;;;;;6252880;28;20180;-71
2021/06/28 11:17:15;;;;;;;4.30;3.35;;;36.80;49.00;;;;;;6270542;28;20273;-71
2021/06/28 11:20:20;;;;;;;3.53;3.08;;;36.70;46.60;;;;;;6271013;28;20274;-71
2021/06/28 11:23:23;;;;;;;3.55;3.15;;;36.40;47.30;;;;;;6252232;28;20199;-71
2021/06/28 11:26:33;;;;;;;4.15;3.10;;;35.90;46.90;;;;;;6270174;28;20290;-71
2021/06/28 11:29:49;;;;;;;5.53;3.30;;;36.10;48.20;;;;;;6251920;28;20206;-71
2021/06/28 11:32:59;;;;;;;3.63;3.00;;;36.50;47.60;;;;;;6252291;28;20286;-71
2021/06/28 11:36:02;;;;;;;3.95;3.60;;;36.50;48.40;;;;;;6269791;28;20203;-71
2021/06/28 11:39:25;;;;;;;3.90;3.60;;;36.80;47.80;;;;;;6244295;28;20555;-71
2021/06/28 11:42:33;;;;;;;5.40;3.75;;;37.10;47.30;;;;;;6245530;28;20176;-71
2021/06/28 11:45:51;;;;;;;4.50;3.40;;;36.80;46.60;;;;;;6243767;28;20192;-71
2021/06/28 11:49:04;;;;;;;3.50;3.20;;;36.60;47.90;;;;;;6245492;28;20172;-71
2021/06/28 11:52:14;;;;;;;3.67;3.38;;;36.90;49.10;;;;;;6245521;28;20176;-71
2021/06/28 11:55:16;;;;;;;3.45;3.00;;;37.50;49.50;;;;;;6244419;28;20743;-71
2021/06/28 11:58:24;;;;;;;4.88;3.63;;;38.00;47.60;;;;;;6251646;28;20209;-71
2021/06/28 12:01:30;;;;;;;4.25;3.53;;;38.40;46.50;;;;;;6270024;28;20179;-71
2021/06/28 12:04:35;;;;;;;3.30;3.00;;;38.70;45.60;;;;;;6269518;28;20588;-71
2021/06/28 12:07:39;;;;;;;6.60;3.30;;;38.60;45.80;;;;;;6269127;28;20207;-71
2021/06/28 12:10:53;;;;;;;3.38;3.08;;;38.40;45.10;;;;;;6269798;28;20519;-71
2021/06/28 12:13:55;;;;;;;3.78;3.28;;;37.90;45.80;;;;;;6269218;28;20202;-71
2021/06/28 12:16:59;;;;;;;5.85;3.38;;;37.80;44.80;;;;;;6269238;28;20191;-71
2021/06/28 12:20:06;;;;;;;3.75;3.42;;;37.80;44.70;;;;;;6269237;28;20346;-71
2021/06/28 12:23:10;;;;;;;5.43;3.30;;;37.60;44.00;;;;;;6251654;28;20184;-71
2021/06/28 12:26:13;;;;;;;3.60;3.30;;;37.10;44.80;;;;;;6269416;28;20586;-71
2021/06/28 12:29:34;;;;;;;3.33;3.00;;;36.90;44.80;;;;;;6269027;28;20199;-71
2021/06/28 12:32:49;;;;;;;6.10;3.55;;;37.10;45.60;;;;;;6251788;28;20172;-71
2021/06/28 12:35:59;;;;;;;5.80;3.22;;;37.60;45.40;;;;;;6251459;28;20199;-71
2021/06/28 12:39:01;;;;;;;6.40;3.20;;;37.80;45.10;;;;;;6251693;28;20176;-71
2021/06/28 12:42:15;;;;;;;4.55;2.88;;;37.70;43.60;;;;;;6268896;28;20184;-71
2021/06/28 12:45:20;;;;;;;3.70;2.97;;;37.80;45.80;;;;;;6251413;28;20180;-71
2021/06/28 12:48:30;;;;;;;3.05;2.60;;;38.20;45.60;;;;;;6251379;28;20285;-72
2021/06/28 12:51:32;;;;;;;3.15;2.85;;;38.50;43.70;;;;;;6269430;28;20180;-72
2021/06/28 12:54:35;;;;;;;4.47;3.13;;;38.90;42.60;;;;;;6269159;28;20264;-72
2021/06/28 12:57:43;;;;;;;3.95;3.25;;;38.90;42.40;;;;;;6273564;28;20240;-72
2021/06/28 13:00:50;;;;;;;4.32;3.60;;;38.60;42.30;;;;;;6273764;28;20187;-72
2021/06/28 13:03:52;;;;;;;3.00;2.80;;;38.50;41.80;;;;;;6273566;28;20597;-72
2021/06/28 13:06:56;;;;;;;3.85;3.08;;;37.90;40.90;;;;;;6273157;28;20505;-72
2021/06/28 13:10:00;;;;;;;3.33;3.03;;;36.60;42.10;;;;;;6273673;28;20195;-72
2021/06/28 13:13:23;;;;;;;2.85;2.42;;;35.80;43.50;;;;;;6273107;28;20187;-72
2021/06/28 13:16:49;;;;;;;2.40;2.30;;;36.10;42.90;;;;;;6255801;28;20675;-72
2021/06/28 13:19:52;;;;;;;4.32;2.63;;;36.40;43.40;;;;;;6272831;28;20233;-72
2021/06/28 13:22:55;;;;;;;2.60;2.40;;;36.90;43.20;;;;;;6273361;28;20187;-72
2021/06/28 13:25:57;;;;;;;3.03;2.45;;;37.40;42.70;;;;;;6273127;28;20214;-72
2021/06/28 13:29:19;;;;;;;5.90;2.25;;;37.80;42.50;;;;;;6272533;28;20219;-72
2021/06/28 13:32:26;;;;;;;2.30;2.10;;;38.40;44.60;;;;;;6273147;28;20608;-72
2021/06/28 13:35:36;;;;;;;3.75;2.60;;;38.90;43.60;;;;;;6272434;28;20257;-72
2021/06/28 13:38:51;;;;;;;2.85;2.55;;;39.40;41.30;;;;;;6272959;28;20191;-72
2021/06/28 13:41:53;;;;;;;2.90;2.70;;;39.40;39.50;;;;;;6272513;28;20182;-72
2021/06/28 13:45:03;;;;;;;2.58;2.38;;;39.30;40.40;;;;;;6254795;28;20199;-72
2021/06/28 13:48:09;;;;;;;2.80;2.40;;;39.60;42.90;;;;;;6254874;28;20212;-72
2021/06/28 13:51:11;;;;;;;2.50;2.30;;;40.00;43.00;;;;;;6272286;28;20666;-72
2021/06/28 13:54:13;;;;;;;2.42;2.22;;;40.10;40.30;;;;;;6272617;28;20207;-72
2021/06/28 13:57:15;;;;;;;2.53;2.33;;;40.20;39.50;;;;;;6254153;28;20222;-73
2021/06/28 14:00:21;;;;;;;2.60;2.40;;;40.30;38.50;;;;;;6254781;28;20554;-73
2021/06/28 14:03:24;;;;;;;3.00;2.25;;;40.50;37.80;;;;;;6272094;28;20219;-73
2021/06/28 14:06:26;;;;;;;2.40;2.20;;;41.00;39.00;;;;;;6245946;28;20239;-72
2021/06/28 14:09:28;;;;;;;3.65;2.65;;;41.30;36.60;;;;;;6246163;28;20192;-72
2021/06/28 14:12:31;;;;;;;2.47;2.28;;;40.80;36.90;;;;;;6245800;28;20188;-72
2021/06/28 14:15:34;;;;;;;2.53;2.33;;;40.40;37.20;;;;;;6247183;28;20192;-72
2021/06/28 14:18:36;;;;;;;2.38;2.17;;;40.80;37.50;;;;;;6246893;28;20234;-72
2021/06/28 14:21:38;;;;;;;2.78;2.58;;;41.20;40.00;;;;;;6247248;28;20192;-72
2021/06/28 14:24:41;;;;;;;2.30;2.10;;;41.70;37.80;;;;;;6245750;28;20691;-72
2021/06/28 14:27:43;;;;;;;3.03;2.47;;;42.10;37.60;;;;;;6246347;28;20214;-72
2021/06/28 14:30:46;;;;;;;4.40;2.40;;;42.70;38.00;;;;;;6229311;28;20196;-72
2021/06/28 14:33:49;;;;;;;3.08;2.13;;;43.30;38.70;;;;;;6245353;28;20200;-72
2021/06/28 14:36:52;;;;;;;4.22;2.08;;;43.80;36.00;;;;;;6245664;28;20199;-72
2021/06/28 14:39:55;;;;;;;3.28;2.50;;;44.30;35.10;;;;;;6245675;28;20632;-72
2021/06/28 14:42:57;;;;;;;2.88;2.40;;;44.60;36.50;;;;;;6246192;28;20192;-72
2021/06/28 14:46:00;;;;;;;3.35;2.80;;;44.30;34.10;;;;;;6245300;28;20555;-72
2021/06/28 14:49:02;;;;;;;3.47;2.63;;;43.70;34.20;;;;;;6246374;28;20330;-72
2021/06/28 14:52:05;;;;;;;3.97;2.80;;;43.40;34.70;;;;;;6245401;28;20271;-72
2021/06/28 14:55:08;;;;;;;2.58;2.40;;;43.40;34.70;;;;;;6246437;28;20192;-72
2021/06/28 14:58:10;;;;;;;3.40;2.10;;;43.40;34.90;;;;;;6246137;28;20266;-72
2021/06/28 15:01:12;;;;;;;2.40;2.15;;;43.70;38.30;;;;;;6226860;28;20215;-72
2021/06/28 15:04:15;;;;;;;3.85;2.30;;;44.10;38.50;;;;;;6226241;28;20321;-72
2021/06/28 15:07:17;;;;;;;4.45;2.25;;;44.20;36.90;;;;;;6245867;28;20322;-72
2021/06/28 15:10:19;;;;;;;3.10;2.50;;;44.40;38.50;;;;;;6244485;28;20188;-72
2021/06/28 15:13:21;;;;;;;2.67;2.47;;;44.40;38.50;;;;;;6244931;28;20196;-72
2021/06/28 15:16:23;;;;;;;2.60;2.40;;;44.20;35.00;;;;;;6244648;28;20422;-72
2021/06/28 15:19:29;;;;;;;4.07;2.17;;;43.90;37.80;;;;;;6245045;28;20510;-72
2021/06/28 15:22:31;;;;;;;2.90;2.60;;;43.90;34.60;;;;;;6245831;28;20681;-72
2021/06/28 15:25:37;;;;;;;3.15;2.45;;;43.50;34.30;;;;;;6243963;28;20462;-72
2021/06/28 15:28:41;;;;;;;2.97;2.45;;;43.50;34.20;;;;;;6252461;28;20231;-72
2021/06/28 15:31:44;;;;;;;3.20;2.40;;;43.60;34.70;;;;;;6252777;28;20191;-72
2021/06/28 15:34:46;;;;;;;2.50;2.13;;;43.90;34.10;;;;;;6269984;28;20187;-72
2021/06/28 15:37:49;;;;;;;3.17;2.40;;;44.10;34.40;;;;;;6252673;28;20305;-72
2021/06/28 15:40:51;;;;;;;3.45;2.22;;;44.20;37.80;;;;;;6251778;28;20195;-72
2021/06/28 15:43:53;;;;;;;4.30;2.15;;;44.20;38.80;;;;;;6252559;28;20655;-72
2021/06/28 15:46:56;;;;;;;6.63;2.17;;;44.20;38.90;;;;;;6251784;28;20223;-72
2021/06/28 15:49:59;;;;;;;2.47;2.28;;;44.10;39.00;;;;;;6252604;28;20186;-72
2021/06/28 15:53:02;;;;;;;3.50;2.55;;;43.90;36.70;;;;;;6270057;28;20187;-72
2021/06/28 15:56:04;;;;;;;4.00;2.47;;;43.50;39.10;;;;;;6269667;28;20269;-72
2021/06/28 15:59:07;;;;;;;4.43;2.35;;;43.20;39.60;;;;;;6251956;28;20203;-72
2021/06/28 16:02:09;;;;;;;3.10;2.20;;;43.10;40.50;;;;;;6269633;28;20195;-72